LA6JKA Spydeberg NO current weather conditions

sailwx.info

Wind from 037 at 0 knots gusting 3

Air temperature -1.7° C
Dewpoint -2.2° C

Last reported at 2019-Nov-11 22:00 UTC.
Time now 2019-Nov-11 23:17 UTC

Location: N 59°37' E 011°06'.
View on Google Maps.

See reports from other nearby stations

  
Tides and Currents Weather Stations Pressure Air Temp Water Temp Dewpoint Dewpoint Depression Visibility Wind Speed Wind Dir Waves Ship Positions
date/time (UTC)wind fromknots sea level pressurealtimeterstation pressurevisibilityair tempwater tempwave heightnotes
2019-Nov-11 22:00 037 0 gusting 3 -1.7
2019-Nov-11 21:45 034 0 gusting 2 -2.2
2019-Nov-11 21:31 045 0 gusting 2 -2.2
2019-Nov-11 21:15 048 0 gusting 4 -2.2
2019-Nov-11 21:00 042 0 gusting 4 -2.2
2019-Nov-11 20:45 032 2 gusting 6 -2.2
2019-Nov-11 20:30 030 2 gusting 6 -2.2
2019-Nov-11 20:15 026 1 gusting 5 -2.2
2019-Nov-11 20:00 044 1 gusting 3 -2.2
2019-Nov-11 19:45 076 0 gusting 2 -2.2
2019-Nov-11 19:30 041 0 gusting 2 -2.2
2019-Nov-11 19:15 050 1 gusting 3 -2.2
2019-Nov-11 19:00 042 0 gusting 2 -2.2
2019-Nov-11 18:45 009 -2.2
2019-Nov-11 18:30 014 1 gusting 4 -2.8
2019-Nov-11 18:15 012 1 gusting 4 -2.8
2019-Nov-11 18:00 347 2 gusting 5 -2.8
2019-Nov-11 17:45 342 -2.8
2019-Nov-11 17:30 348 0 gusting 2 -2.2
2019-Nov-11 17:15 341 0 gusting 2 -2.2
2019-Nov-11 17:00 344 0 gusting 2 -2.2
2019-Nov-11 16:32 340 -2.2
2019-Nov-11 16:16 329 1 gusting 3 -2.2
2019-Nov-11 16:03 348 0 gusting 3 -2.2
2019-Nov-11 15:47 323 0 gusting 3 -2.2
2019-Nov-11 15:32 340 0 gusting 2 -2.2
2019-Nov-11 15:16 338 1 gusting 3 -2.2
2019-Nov-11 15:02 329 0 gusting 3 -2.2
2019-Nov-11 14:47 005 1 gusting 3 -2.2
2019-Nov-11 14:31 030 0 gusting 5 -2.2
2019-Nov-11 14:17 042 2 gusting 5 -2.2
2019-Nov-11 14:01 028 3 gusting 6 -2.2
2019-Nov-11 13:46 346 0 gusting 2 -2.2
2019-Nov-11 13:31 025 1 gusting 6 -2.2
2019-Nov-11 13:16 036 2 gusting 6 -2.2
2019-Nov-11 13:01 009 2 gusting 6 -2.2
2019-Nov-11 12:46 018 3 gusting 6 -2.2
2019-Nov-11 12:32 033 1 gusting 6 -2.8
2019-Nov-11 12:16 038 2 gusting 6 -2.2
2019-Nov-11 12:01 039 3 gusting 9 -2.8
2019-Nov-11 11:46 032 3 gusting 8 -2.8
2019-Nov-11 11:31 061 4 gusting 8 -2.8
2019-Nov-11 11:16 018 3 gusting 9 -2.8
2019-Nov-11 11:01 039 4 gusting 9 -2.8
2019-Nov-11 10:46 046 4 gusting 11 -2.8
2019-Nov-11 10:31 038 6 gusting 11 -2.8
2019-Nov-11 10:16 029 5 gusting 9 -2.8
2019-Nov-11 10:01 033 6 gusting 13 -2.8
2019-Nov-11 09:46 020 6 gusting 11 -2.8
2019-Nov-11 09:31 037 3 gusting 7 -2.8
2019-Nov-11 09:16 023 3 gusting 11 -2.8
2019-Nov-11 09:01 055 5 gusting 11 -2.8
2019-Nov-11 08:46 044 6 gusting 12 -2.8
2019-Nov-11 08:31 022 5 gusting 9 -3.3
2019-Nov-11 08:15 061 5 gusting 12 -3.3
2019-Nov-11 08:00 015 4 gusting 10 -3.3
2019-Nov-11 07:46 018 5 gusting 11 -3.3
2019-Nov-11 07:30 057 3 gusting 11 -3.3
2019-Nov-11 07:15 034 4 gusting 9 -3.3
2019-Nov-11 07:00 044 5 gusting 9 -3.3
2019-Nov-11 06:45 035 5 gusting 8 -3.3
2019-Nov-11 06:31 052 5 gusting 8 -3.3
2019-Nov-11 06:15 055 5 gusting 12 -3.3
2019-Nov-11 06:00 032 7 gusting 13 -3.3
2019-Nov-11 05:45 005 7 gusting 14 -3.3
2019-Nov-11 05:30 049 6 gusting 13 -3.3
2019-Nov-11 05:15 032 4 gusting 10 -3.3
2019-Nov-11 05:00 036 3 gusting 8 -2.8
2019-Nov-11 04:45 042 2 gusting 7 -2.8
2019-Nov-11 04:33 071 3 gusting 7 -2.8
2019-Nov-11 04:17 026 1 gusting 5 -2.8
2019-Nov-11 04:01 039 0 gusting 4 -2.8
2019-Nov-11 03:46 047 2 gusting 4 -2.8
2019-Nov-11 03:31 070 -2.8
2019-Nov-11 03:17 044 0 gusting 4 -2.8
2019-Nov-11 03:01 065 1 gusting 5 -2.8
2019-Nov-11 02:47 044 1 gusting 5 -2.8
2019-Nov-11 02:32 061 1 gusting 4 -2.2
2019-Nov-11 02:16 038 2 gusting 5 -2.8
2019-Nov-11 02:01 081 3 gusting 6 -2.8
2019-Nov-11 01:46 050 -2.8
2019-Nov-11 01:31 039 2 gusting 7 -2.8
2019-Nov-11 01:16 061 2 gusting 7 -2.8
2019-Nov-11 01:01 074 1 gusting 4 -2.8
2019-Nov-11 00:45 043 0 gusting 3 -2.2
2019-Nov-11 00:30 030 1 gusting 3 -2.2
2019-Nov-11 00:15 055 -2.2
2019-Nov-11 00:00 044 -2.2
2019-Nov-10 23:45 059 -2.2
2019-Nov-10 23:30 060 -2.2
2019-Nov-10 23:15 038 -2.2
2019-Nov-10 23:00 051 -2.2
2019-Nov-10 22:45 057 -2.2
2019-Nov-10 22:30 043 -2.2
2019-Nov-10 22:15 055 -2.2
2019-Nov-10 22:00 051 -2.2
2019-Nov-10 21:45 069 -2.2
2019-Nov-10 21:30 078 0 gusting 2 -2.2
2019-Nov-10 21:15 067 -2.2
2019-Nov-10 21:00 067 -2.2
2019-Nov-10 20:45 067 -2.8
2019-Nov-10 20:15 069 -2.8
2019-Nov-10 20:00 069 -2.8
2019-Nov-10 19:45 069 -2.8
2019-Nov-10 19:30 069 -2.8
2019-Nov-10 19:15 059 -2.8
2019-Nov-10 19:00 059 -2.8
2019-Nov-10 18:45 059 -2.8
2019-Nov-10 18:30 059 -2.8
2019-Nov-10 18:15 059 -2.8
2019-Nov-10 18:00 059 -2.2
2019-Nov-10 17:47 053 -2.2
2019-Nov-10 17:32 047 -2.2
2019-Nov-10 17:17 042 -2.2
2019-Nov-10 17:03 042 -2.2
2019-Nov-10 16:47 042 -2.2
2019-Nov-10 16:31 042 -2.2
2019-Nov-10 16:16 042 -2.2
2019-Nov-10 16:02 042 -2.2
2019-Nov-10 15:46 043 -2.2
2019-Nov-10 15:31 043 -2.2
2019-Nov-10 15:17 041 -2.2
2019-Nov-10 15:01 012 -2.2
2019-Nov-10 14:47 005 0 gusting 2 -1.7
2019-Nov-10 14:31 360 -1.7
2019-Nov-10 14:18 348 -1.7
2019-Nov-10 14:01 347 -1.7
2019-Nov-10 13:46 347 -1.7
2019-Nov-10 13:32 346 0 gusting 2 -1.7
2019-Nov-10 13:17 350 0 gusting 3 -1.7
2019-Nov-10 13:02 018 0 gusting 3 -1.1
2019-Nov-10 12:47 355 1 gusting 4 -1.1
2019-Nov-10 12:31 032 -1.1
2019-Nov-10 12:16 014 0 gusting 4 -1.1
2019-Nov-10 12:02 037 0 gusting 3 -1.1
2019-Nov-10 11:46 031 2 gusting 5 -1.1
2019-Nov-10 11:31 015 1 gusting 5 -1.1
2019-Nov-10 11:16 346 1 gusting 4 -1.1
2019-Nov-10 11:01 005 1 gusting 4 -1.1
2019-Nov-10 10:47 025 2 gusting 5 -1.1
2019-Nov-10 10:31 022 0 gusting 3 -1.1
2019-Nov-10 10:17 065 1 gusting 4 -1.7
2019-Nov-10 10:01 048 1 gusting 4 -1.7
2019-Nov-10 09:46 026 2 gusting 5 -1.7
2019-Nov-10 09:32 330 2 gusting 6 -1.7
2019-Nov-10 09:16 026 2 gusting 6 -1.7
2019-Nov-10 09:00 037 2 gusting 7 -1.7
2019-Nov-10 08:46 023 2 gusting 6 -1.7
2019-Nov-10 08:30 015 3 gusting 6 -1.7
2019-Nov-10 08:16 013 3 gusting 8 -1.7
2019-Nov-10 08:01 022 2 gusting 6 -2.2
2019-Nov-10 07:45 024 2 gusting 6 -2.2
2019-Nov-10 07:31 351 4 gusting 7 -2.2
2019-Nov-10 07:17 338 4 gusting 7 -2.2
2019-Nov-10 07:01 011 1 gusting 4 -2.2
2019-Nov-10 06:49 023 2 gusting 5 -2.2
2019-Nov-10 06:45 013 2 gusting 5 -2.2
2019-Nov-10 06:32 350 1 gusting 4 -2.2
2019-Nov-10 06:17 344 1 gusting 4 -2.2
2019-Nov-10 06:02 005 1 gusting 5 -2.2
2019-Nov-10 05:46 011 2 gusting 5 -2.2
2019-Nov-10 05:31 009 2 gusting 4 -2.2
2019-Nov-10 05:17 024 2 gusting 5 -2.2
2019-Nov-10 05:01 013 1 gusting 5 -1.7
2019-Nov-10 04:46 022 2 gusting 5 -1.7
2019-Nov-10 04:31 005 2 gusting 6 -1.7
2019-Nov-10 04:17 034 1 gusting 5 -1.7
2019-Nov-10 04:01 011 4 gusting 9 -1.7
2019-Nov-10 03:46 062 2 gusting 8 -1.7
2019-Nov-10 03:31 015 1 gusting 4 -1.7
2019-Nov-10 03:17 044 2 gusting 5 -1.7
2019-Nov-10 03:02 028 3 gusting 6 -1.7
2019-Nov-10 02:46 020 2 gusting 5 -1.7
2019-Nov-10 02:30 027 2 gusting 6 -1.7
2019-Nov-10 02:16 029 1 gusting 6 -1.7
2019-Nov-10 02:01 037 3 gusting 6 -1.7
2019-Nov-10 01:46 051 3 gusting 8 -1.7
2019-Nov-10 01:31 033 4 gusting 8 -1.7
2019-Nov-10 01:15 011 4 gusting 6 -1.7
2019-Nov-10 01:00 036 3 gusting 8 -1.7
2019-Nov-10 00:45 005 3 gusting 8 -1.7
2019-Nov-10 00:30 037 3 gusting 7 -1.7
2019-Nov-10 00:16 012 3 gusting 7 -1.7
2019-Nov-10 00:00 036 2 gusting 7 -1.7
2019-Nov-09 23:45 029 3 gusting 6 -1.7
2019-Nov-09 23:31 030 1 gusting 4 -1.7
2019-Nov-09 23:15 043 2 gusting 5 -1.7
2019-Nov-09 23:00 030 3 gusting 8 -1.7